sensor_id;sensor_type;location;lat;lon;timestamp;pressure;altitude;pressure_sealevel;temperature;humidity
61128;BME280;47013;42.664;23.242;2022-11-20T00:02:17;93267.56;;;17.34;60.29
61128;BME280;47013;42.664;23.242;2022-11-20T00:04:42;93274.28;;;17.33;60.88
61128;BME280;47013;42.664;23.242;2022-11-20T00:07:08;93314.19;;;17.25;61.21
61128;BME280;47013;42.664;23.242;2022-11-20T00:09:33;93285.28;;;17.24;61.84
61128;BME280;47013;42.664;23.242;2022-11-20T00:11:58;93277.69;;;17.19;61.29
61128;BME280;47013;42.664;23.242;2022-11-20T00:14:24;93288.19;;;17.21;60.55
61128;BME280;47013;42.664;23.242;2022-11-20T00:16:49;93275.31;;;17.36;60.36
61128;BME280;47013;42.664;23.242;2022-11-20T00:19:14;93268.16;;;17.38;59.83
61128;BME280;47013;42.664;23.242;2022-11-20T00:21:40;93254.34;;;17.33;59.62
61128;BME280;47013;42.664;23.242;2022-11-20T00:24:08;93264.44;;;17.51;58.72
61128;BME280;47013;42.664;23.242;2022-11-20T00:26:33;93280.13;;;17.50;59.31
61128;BME280;47013;42.664;23.242;2022-11-20T00:29:00;93263.84;;;17.47;59.59
61128;BME280;47013;42.664;23.242;2022-11-20T00:31:27;93273.34;;;17.36;59.95
61128;BME280;47013;42.664;23.242;2022-11-20T00:33:52;93258.31;;;17.32;59.87
61128;BME280;47013;42.664;23.242;2022-11-20T00:36:20;93277.91;;;17.30;60.21
61128;BME280;47013;42.664;23.242;2022-11-20T00:38:46;93263.16;;;17.28;60.18
61128;BME280;47013;42.664;23.242;2022-11-20T00:41:15;93262.09;;;17.34;60.62
61128;BME280;47013;42.664;23.242;2022-11-20T00:43:41;93286.91;;;17.31;60.32
61128;BME280;47013;42.664;23.242;2022-11-20T00:46:09;93303.97;;;17.26;60.54
61128;BME280;47013;42.664;23.242;2022-11-20T00:48:35;93290.75;;;17.24;60.96
61128;BME280;47013;42.664;23.242;2022-11-20T00:51:01;93298.50;;;17.26;61.12
61128;BME280;47013;42.664;23.242;2022-11-20T00:53:26;93276.91;;;17.19;61.47
61128;BME280;47013;42.664;23.242;2022-11-20T00:56:04;93286.06;;;17.16;61.65
61128;BME280;47013;42.664;23.242;2022-11-20T00:58:35;93286.22;;;17.12;62.00
61128;BME280;47013;42.664;23.242;2022-11-20T01:01:02;93306.81;;;17.07;61.98
61128;BME280;47013;42.664;23.242;2022-11-20T01:03:31;93283.97;;;17.10;61.81
61128;BME280;47013;42.664;23.242;2022-11-20T01:06:02;93293.22;;;17.13;62.01
61128;BME280;47013;42.664;23.242;2022-11-20T01:08:32;93280.47;;;17.10;62.25
61128;BME280;47013;42.664;23.242;2022-11-20T01:11:07;93272.56;;;17.03;63.27
61128;BME280;47013;42.664;23.242;2022-11-20T01:13:33;93270.88;;;17.05;61.53
61128;BME280;47013;42.664;23.242;2022-11-20T01:16:15;93250.78;;;17.08;62.86
61128;BME280;47013;42.664;23.242;2022-11-20T01:18:43;93258.16;;;16.93;63.00
61128;BME280;47013;42.664;23.242;2022-11-20T01:21:20;93252.22;;;16.95;62.73
61128;BME280;47013;42.664;23.242;2022-11-20T01:23:47;93254.34;;;16.91;63.00
61128;BME280;47013;42.664;23.242;2022-11-20T01:26:18;93236.13;;;16.88;62.30
61128;BME280;47013;42.664;23.242;2022-11-20T01:28:44;93267.06;;;17.12;61.41
61128;BME280;47013;42.664;23.242;2022-11-20T01:31:24;93244.50;;;17.17;60.58
61128;BME280;47013;42.664;23.242;2022-11-20T01:33:52;93232.31;;;17.18;60.48
61128;BME280;47013;42.664;23.242;2022-11-20T01:36:20;93199.75;;;17.20;60.48
61128;BME280;47013;42.664;23.242;2022-11-20T01:38:46;93243.28;;;17.18;60.66
61128;BME280;47013;42.664;23.242;2022-11-20T01:41:13;93222.00;;;17.13;60.50
61128;BME280;47013;42.664;23.242;2022-11-20T01:43:59;93247.13;;;17.12;60.52
61128;BME280;47013;42.664;23.242;2022-11-20T01:46:24;93227.38;;;17.07;60.93
61128;BME280;47013;42.664;23.242;2022-11-20T01:53:49;93239.28;;;16.95;61.81
61128;BME280;47013;42.664;23.242;2022-11-20T01:56:17;93232.63;;;16.87;62.26
61128;BME280;47013;42.664;23.242;2022-11-20T01:58:48;93233.56;;;16.84;62.28
61128;BME280;47013;42.664;23.242;2022-11-20T02:01:15;93236.47;;;16.80;62.19
61128;BME280;47013;42.664;23.242;2022-11-20T02:03:41;93243.47;;;16.82;62.30
61128;BME280;47013;42.664;23.242;2022-11-20T02:06:13;93257.25;;;16.87;62.05
61128;BME280;47013;42.664;23.242;2022-11-20T02:08:40;93255.00;;;16.86;62.27
61128;BME280;47013;42.664;23.242;2022-11-20T02:11:05;93246.94;;;16.82;62.22
61128;BME280;47013;42.664;23.242;2022-11-20T02:13:31;93251.34;;;16.79;62.38
61128;BME280;47013;42.664;23.242;2022-11-20T02:16:14;93263.38;;;16.82;61.73
61128;BME280;47013;42.664;23.242;2022-11-20T02:18:40;93269.75;;;16.79;62.35
61128;BME280;47013;42.664;23.242;2022-11-20T02:21:12;93260.34;;;16.80;61.80
61128;BME280;47013;42.664;23.242;2022-11-20T02:26:27;93254.69;;;16.84;61.62
61128;BME280;47013;42.664;23.242;2022-11-20T02:28:54;93259.13;;;16.81;61.91
61128;BME280;47013;42.664;23.242;2022-11-20T02:31:20;93265.97;;;16.76;62.57
61128;BME280;47013;42.664;23.242;2022-11-20T02:33:45;93256.38;;;16.81;62.79
61128;BME280;47013;42.664;23.242;2022-11-20T02:36:14;93280.28;;;16.80;62.95
61128;BME280;47013;42.664;23.242;2022-11-20T02:38:40;93260.34;;;16.80;62.81
61128;BME280;47013;42.664;23.242;2022-11-20T02:41:06;93269.34;;;16.71;62.70
61128;BME280;47013;42.664;23.242;2022-11-20T02:43:31;93265.84;;;16.71;63.22
61128;BME280;47013;42.664;23.242;2022-11-20T02:45:57;93280.00;;;16.69;63.89
61128;BME280;47013;42.664;23.242;2022-11-20T02:48:22;93284.97;;;16.62;64.46
61128;BME280;47013;42.664;23.242;2022-11-20T02:50:47;93284.84;;;16.56;65.11
61128;BME280;47013;42.664;23.242;2022-11-20T02:53:13;93282.41;;;16.58;65.29
61128;BME280;47013;42.664;23.242;2022-11-20T02:55:38;93294.28;;;16.55;65.19
61128;BME280;47013;42.664;23.242;2022-11-20T02:58:04;93285.00;;;16.52;65.60
61128;BME280;47013;42.664;23.242;2022-11-20T03:00:29;93294.28;;;16.55;66.09
61128;BME280;47013;42.664;23.242;2022-11-20T03:02:55;93302.63;;;16.51;66.26
61128;BME280;47013;42.664;23.242;2022-11-20T03:05:21;93270.44;;;16.46;66.71
61128;BME280;47013;42.664;23.242;2022-11-20T03:07:46;93294.91;;;16.41;67.03
61128;BME280;47013;42.664;23.242;2022-11-20T03:10:11;93296.44;;;16.42;66.94
61128;BME280;47013;42.664;23.242;2022-11-20T03:12:37;93297.66;;;16.41;66.73
61128;BME280;47013;42.664;23.242;2022-11-20T03:15:03;93284.28;;;16.34;67.28
61128;BME280;47013;42.664;23.242;2022-11-20T03:17:28;93300.69;;;16.34;67.52
61128;BME280;47013;42.664;23.242;2022-11-20T03:19:54;93292.66;;;16.30;67.78
61128;BME280;47013;42.664;23.242;2022-11-20T03:22:20;93293.53;;;16.27;67.72
61128;BME280;47013;42.664;23.242;2022-11-20T03:24:45;93284.56;;;16.27;67.08
61128;BME280;47013;42.664;23.242;2022-11-20T03:27:11;93286.53;;;16.26;67.53
61128;BME280;47013;42.664;23.242;2022-11-20T03:29:36;93278.97;;;16.21;67.57
61128;BME280;47013;42.664;23.242;2022-11-20T03:32:02;93276.81;;;16.25;67.04
61128;BME280;47013;42.664;23.242;2022-11-20T03:34:27;93273.63;;;16.27;67.15
61128;BME280;47013;42.664;23.242;2022-11-20T03:36:52;93278.66;;;16.28;66.97
61128;BME280;47013;42.664;23.242;2022-11-20T03:39:18;93298.13;;;16.30;66.99
61128;BME280;47013;42.664;23.242;2022-11-20T03:41:43;93296.13;;;16.31;66.49
61128;BME280;47013;42.664;23.242;2022-11-20T03:44:11;93285.66;;;16.29;67.00
61128;BME280;47013;42.664;23.242;2022-11-20T03:46:36;93298.56;;;16.29;66.84
61128;BME280;47013;42.664;23.242;2022-11-20T03:49:02;93295.69;;;16.23;66.79
61128;BME280;47013;42.664;23.242;2022-11-20T03:51:29;93318.00;;;16.21;66.96
61128;BME280;47013;42.664;23.242;2022-11-20T03:53:57;93301.59;;;16.21;67.09
61128;BME280;47013;42.664;23.242;2022-11-20T03:56:25;93306.19;;;16.15;67.32
61128;BME280;47013;42.664;23.242;2022-11-20T03:58:51;93309.81;;;16.12;67.27
61128;BME280;47013;42.664;23.242;2022-11-20T04:01:22;93301.16;;;16.23;66.34
61128;BME280;47013;42.664;23.242;2022-11-20T04:03:48;93323.19;;;16.19;66.87
61128;BME280;47013;42.664;23.242;2022-11-20T04:06:21;93320.28;;;16.14;67.37
61128;BME280;47013;42.664;23.242;2022-11-20T04:08:47;93319.22;;;16.11;67.61
61128;BME280;47013;42.664;23.242;2022-11-20T04:11:17;93309.22;;;16.08;67.13
61128;BME280;47013;42.664;23.242;2022-11-20T04:13:46;93302.50;;;16.09;66.92
61128;BME280;47013;42.664;23.242;2022-11-20T04:16:11;93303.28;;;16.10;67.39
61128;BME280;47013;42.664;23.242;2022-11-20T04:18:37;93304.66;;;16.05;67.68
61128;BME280;47013;42.664;23.242;2022-11-20T04:21:04;93304.94;;;15.98;67.22
61128;BME280;47013;42.664;23.242;2022-11-20T04:23:29;93301.75;;;16.00;67.41
61128;BME280;47013;42.664;23.242;2022-11-20T04:26:04;93316.03;;;16.04;66.69
61128;BME280;47013;42.664;23.242;2022-11-20T04:28:29;93316.78;;;16.13;66.17
61128;BME280;47013;42.664;23.242;2022-11-20T04:31:13;93316.66;;;16.08;66.74
61128;BME280;47013;42.664;23.242;2022-11-20T04:33:40;93313.16;;;16.07;67.01
61128;BME280;47013;42.664;23.242;2022-11-20T04:36:10;93305.41;;;16.06;67.54
61128;BME280;47013;42.664;23.242;2022-11-20T04:38:36;93323.94;;;16.02;68.15
61128;BME280;47013;42.664;23.242;2022-11-20T04:41:05;93320.13;;;15.99;67.85
61128;BME280;47013;42.664;23.242;2022-11-20T04:43:31;93316.19;;;15.91;68.20
61128;BME280;47013;42.664;23.242;2022-11-20T04:45:58;93317.84;;;15.98;68.09
61128;BME280;47013;42.664;23.242;2022-11-20T04:48:24;93314.06;;;15.95;68.60
61128;BME280;47013;42.664;23.242;2022-11-20T04:50:51;93299.31;;;15.92;68.54
61128;BME280;47013;42.664;23.242;2022-11-20T04:53:16;93306.91;;;15.88;69.03
61128;BME280;47013;42.664;23.242;2022-11-20T04:55:42;93314.19;;;15.82;69.28
61128;BME280;47013;42.664;23.242;2022-11-20T04:58:07;93296.72;;;15.80;69.43
61128;BME280;47013;42.664;23.242;2022-11-20T05:00:32;93296.28;;;15.81;69.70
61128;BME280;47013;42.664;23.242;2022-11-20T05:02:58;93296.28;;;15.81;69.57
61128;BME280;47013;42.664;23.242;2022-11-20T05:05:24;93272.59;;;15.78;69.16
61128;BME280;47013;42.664;23.242;2022-11-20T05:07:49;93284.28;;;15.79;69.50
61128;BME280;47013;42.664;23.242;2022-11-20T05:10:15;93278.50;;;15.77;69.59
61128;BME280;47013;42.664;23.242;2022-11-20T05:12:40;93266.81;;;15.76;69.09
61128;BME280;47013;42.664;23.242;2022-11-20T05:15:06;93249.22;;;15.77;69.49
61128;BME280;47013;42.664;23.242;2022-11-20T05:17:32;93260.91;;;15.78;70.03
61128;BME280;47013;42.664;23.242;2022-11-20T05:19:57;93289.28;;;15.80;68.45
61128;BME280;47013;42.664;23.242;2022-11-20T05:22:22;93268.97;;;15.90;68.26
61128;BME280;47013;42.664;23.242;2022-11-20T05:24:48;93257.41;;;15.86;68.49
61128;BME280;47013;42.664;23.242;2022-11-20T05:27:13;93256.19;;;15.87;68.42
61128;BME280;47013;42.664;23.242;2022-11-20T05:29:38;93230.06;;;15.86;68.44
61128;BME280;47013;42.664;23.242;2022-11-20T05:32:04;93237.78;;;15.88;68.47
61128;BME280;47013;42.664;23.242;2022-11-20T05:34:32;93256.78;;;15.82;69.66
61128;BME280;47013;42.664;23.242;2022-11-20T05:36:58;93263.63;;;15.87;68.50
61128;BME280;47013;42.664;23.242;2022-11-20T05:39:23;93251.78;;;15.90;68.13
61128;BME280;47013;42.664;23.242;2022-11-20T05:41:48;93264.09;;;15.95;68.34
61128;BME280;47013;42.664;23.242;2022-11-20T05:44:34;93253.16;;;15.95;68.34
61128;BME280;47013;42.664;23.242;2022-11-20T05:46:59;93271.38;;;15.98;66.77
61128;BME280;47013;42.664;23.242;2022-11-20T05:49:24;93279.28;;;16.05;67.40
61128;BME280;47013;42.664;23.242;2022-11-20T05:51:50;93280.19;;;16.02;67.88
61128;BME280;47013;42.664;23.242;2022-11-20T05:54:15;93270.31;;;15.95;67.78
61128;BME280;47013;42.664;23.242;2022-11-20T05:56:41;93290.97;;;15.96;68.64
61128;BME280;47013;42.664;23.242;2022-11-20T05:59:07;93287.47;;;15.86;68.61
61128;BME280;47013;42.664;23.242;2022-11-20T06:01:32;93289.75;;;15.88;69.13
61128;BME280;47013;42.664;23.242;2022-11-20T06:03:57;93300.38;;;15.86;69.49
61128;BME280;47013;42.664;23.242;2022-11-20T06:06:23;93305.53;;;15.84;69.22
61128;BME280;47013;42.664;23.242;2022-11-20T06:08:50;93312.69;;;15.81;69.25
61128;BME280;47013;42.664;23.242;2022-11-20T06:11:16;93301.28;;;15.83;68.70
61128;BME280;47013;42.664;23.242;2022-11-20T06:13:42;93317.06;;;15.88;69.50
61128;BME280;47013;42.664;23.242;2022-11-20T06:16:08;93316.66;;;15.89;68.61
61128;BME280;47013;42.664;23.242;2022-11-20T06:18:34;93308.88;;;15.97;67.88
61128;BME280;47013;42.664;23.242;2022-11-20T06:21:02;93306.94;;;16.07;67.58
61128;BME280;47013;42.664;23.242;2022-11-20T06:23:30;93321.50;;;16.13;67.55
61128;BME280;47013;42.664;23.242;2022-11-20T06:25:55;93322.13;;;16.17;66.08
61128;BME280;47013;42.664;23.242;2022-11-20T06:28:21;93315.28;;;16.21;65.52
61128;BME280;47013;42.664;23.242;2022-11-20T06:30:47;93328.19;;;16.21;66.42
61128;BME280;47013;42.664;23.242;2022-11-20T06:33:12;93336.88;;;16.29;66.95
61128;BME280;47013;42.664;23.242;2022-11-20T06:35:38;93333.22;;;16.32;66.35
61128;BME280;47013;42.664;23.242;2022-11-20T06:38:03;93332.75;;;16.42;65.54
61128;BME280;47013;42.664;23.242;2022-11-20T06:40:28;93332.75;;;16.42;65.45
61128;BME280;47013;42.664;23.242;2022-11-20T06:42:54;93336.69;;;16.50;65.63
61128;BME280;47013;42.664;23.242;2022-11-20T06:45:20;93332.72;;;16.61;63.78
61128;BME280;47013;42.664;23.242;2022-11-20T06:47:46;93341.25;;;16.63;64.72
61128;BME280;47013;42.664;23.242;2022-11-20T06:50:11;93337.19;;;16.67;64.38
61128;BME280;47013;42.664;23.242;2022-11-20T06:52:37;93328.81;;;16.71;63.45
61128;BME280;47013;42.664;23.242;2022-11-20T06:55:02;93344.75;;;16.82;64.10
61128;BME280;47013;42.664;23.242;2022-11-20T06:57:28;93339.28;;;16.82;64.66
61128;BME280;47013;42.664;23.242;2022-11-20T06:59:53;93329.84;;;16.73;64.76
61128;BME280;47013;42.664;23.242;2022-11-20T07:02:18;93357.38;;;16.61;65.79
61128;BME280;47013;42.664;23.242;2022-11-20T07:04:44;93359.03;;;16.58;66.04
61128;BME280;47013;42.664;23.242;2022-11-20T07:07:09;93347.63;;;16.50;66.77
61128;BME280;47013;42.664;23.242;2022-11-20T07:09:34;93358.75;;;16.38;69.15
61128;BME280;47013;42.664;23.242;2022-11-20T07:12:00;93358.31;;;16.30;69.67
61128;BME280;47013;42.664;23.242;2022-11-20T07:14:25;93360.88;;;16.25;69.88
61128;BME280;47013;42.664;23.242;2022-11-20T07:16:51;93353.88;;;16.05;70.19
61128;BME280;47013;42.664;23.242;2022-11-20T07:19:16;93360.25;;;16.11;69.83
61128;BME280;47013;42.664;23.242;2022-11-20T07:21:41;93349.91;;;15.97;70.29
61128;BME280;47013;42.664;23.242;2022-11-20T07:24:07;93345.47;;;15.81;71.10
61128;BME280;47013;42.664;23.242;2022-11-20T07:26:32;93348.06;;;15.76;73.08
61128;BME280;47013;42.664;23.242;2022-11-20T07:28:58;93357.03;;;15.76;73.82
61128;BME280;47013;42.664;23.242;2022-11-20T07:31:23;93357.59;;;15.71;71.75
61128;BME280;47013;42.664;23.242;2022-11-20T07:33:48;93347.56;;;15.68;72.07
61128;BME280;47013;42.664;23.242;2022-11-20T07:36:14;93350.78;;;15.76;71.81
61128;BME280;47013;42.664;23.242;2022-11-20T07:38:39;93342.91;;;15.78;71.25
61128;BME280;47013;42.664;23.242;2022-11-20T07:41:05;93341.22;;;15.80;71.44
61128;BME280;47013;42.664;23.242;2022-11-20T07:43:30;93358.38;;;15.81;71.54
61128;BME280;47013;42.664;23.242;2022-11-20T07:45:56;93329.56;;;15.89;69.59
61128;BME280;47013;42.664;23.242;2022-11-20T07:48:23;93315.72;;;15.92;68.42
61128;BME280;47013;42.664;23.242;2022-11-20T07:50:48;93339.25;;;15.99;68.12
61128;BME280;47013;42.664;23.242;2022-11-20T07:53:13;93334.72;;;16.05;67.19
61128;BME280;47013;42.664;23.242;2022-11-20T07:55:39;93345.22;;;16.07;67.76
61128;BME280;47013;42.664;23.242;2022-11-20T07:58:05;93352.06;;;16.20;66.67
61128;BME280;47013;42.664;23.242;2022-11-20T08:00:30;93357.38;;;16.24;67.30
61128;BME280;47013;42.664;23.242;2022-11-20T08:02:56;93352.97;;;16.27;66.82
61128;BME280;47013;42.664;23.242;2022-11-20T08:05:21;93370.59;;;16.35;66.76
61128;BME280;47013;42.664;23.242;2022-11-20T08:07:47;93370.91;;;16.37;67.58
61128;BME280;47013;42.664;23.242;2022-11-20T08:10:14;93365.28;;;16.31;67.87
61128;BME280;47013;42.664;23.242;2022-11-20T08:12:45;93348.72;;;16.35;67.25
61128;BME280;47013;42.664;23.242;2022-11-20T08:15:29;93365.13;;;16.44;68.61
61128;BME280;47013;42.664;23.242;2022-11-20T08:18:24;93363.16;;;16.35;70.96
61128;BME280;47013;42.664;23.242;2022-11-20T08:20:49;93364.06;;;16.32;71.70
61128;BME280;47013;42.664;23.242;2022-11-20T08:23:14;93369.22;;;16.12;72.14
61128;BME280;47013;42.664;23.242;2022-11-20T08:25:40;93376.97;;;16.13;72.79
61128;BME280;47013;42.664;23.242;2022-11-20T08:28:09;93400.19;;;16.00;71.33
61128;BME280;47013;42.664;23.242;2022-11-20T08:30:35;93391.81;;;15.85;75.00
61128;BME280;47013;42.664;23.242;2022-11-20T08:33:04;93407.16;;;15.91;73.96
61128;BME280;47013;42.664;23.242;2022-11-20T08:35:33;93412.50;;;15.95;75.48
61128;BME280;47013;42.664;23.242;2022-11-20T08:37:59;93401.50;;;15.77;74.44
61128;BME280;47013;42.664;23.242;2022-11-20T08:40:24;93417.31;;;15.82;75.63
61128;BME280;47013;42.664;23.242;2022-11-20T08:42:50;93437.75;;;15.68;79.72
61128;BME280;47013;42.664;23.242;2022-11-20T08:45:17;93439.06;;;15.54;86.14
61128;BME280;47013;42.664;23.242;2022-11-20T08:47:43;93452.50;;;15.18;89.32
61128;BME280;47013;42.664;23.242;2022-11-20T08:50:11;93459.50;;;14.75;92.29
61128;BME280;47013;42.664;23.242;2022-11-20T08:52:37;93432.94;;;14.54;93.39
61128;BME280;47013;42.664;23.242;2022-11-20T08:55:04;93412.84;;;14.26;94.40
61128;BME280;47013;42.664;23.242;2022-11-20T08:57:34;93427.06;;;14.21;99.52
61128;BME280;47013;42.664;23.242;2022-11-20T09:00:00;93425.94;;;14.18;100.00
61128;BME280;47013;42.664;23.242;2022-11-20T09:02:26;93435.09;;;14.24;97.79
61128;BME280;47013;42.664;23.242;2022-11-20T09:04:52;93433.44;;;14.27;99.50
61128;BME280;47013;42.664;23.242;2022-11-20T09:07:19;93433.00;;;14.28;100.00
61128;BME280;47013;42.664;23.242;2022-11-20T09:09:44;93449.69;;;14.30;100.00
61128;BME280;47013;42.664;23.242;2022-11-20T09:12:09;93441.75;;;14.23;100.00
61128;BME280;47013;42.664;23.242;2022-11-20T09:14:35;93441.88;;;14.20;100.00
61128;BME280;47013;42.664;23.242;2022-11-20T09:17:00;93459.13;;;14.04;100.00
61128;BME280;47013;42.664;23.242;2022-11-20T09:19:26;93456.47;;;14.73;98.76
61128;BME280;47013;42.664;23.242;2022-11-20T09:21:51;93447.97;;;14.24;98.96
61128;BME280;47013;42.664;23.242;2022-11-20T09:24:17;93430.88;;;14.10;98.20
61128;BME280;47013;42.664;23.242;2022-11-20T09:26:43;93433.09;;;13.90;98.64
61128;BME280;47013;42.664;23.242;2022-11-20T09:29:09;93442.41;;;13.67;100.00
61128;BME280;47013;42.664;23.242;2022-11-20T09:31:34;93427.03;;;13.61;100.00
61128;BME280;47013;42.664;23.242;2022-11-20T09:33:59;93427.59;;;13.55;100.00
61128;BME280;47013;42.664;23.242;2022-11-20T09:36:25;93396.09;;;13.54;100.00
61128;BME280;47013;42.664;23.242;2022-11-20T09:38:51;93391.06;;;13.53;100.00
61128;BME280;47013;42.664;23.242;2022-11-20T09:47:08;93366.53;;;13.66;100.00
61128;BME280;47013;42.664;23.242;2022-11-20T09:54:46;93355.38;;;13.85;100.00
61128;BME280;47013;42.664;23.242;2022-11-20T09:57:14;93358.03;;;14.11;100.00
61128;BME280;47013;42.664;23.242;2022-11-20T09:59:44;93352.28;;;14.31;100.00
61128;BME280;47013;42.664;23.242;2022-11-20T10:02:20;93347.75;;;14.50;97.13
61128;BME280;47013;42.664;23.242;2022-11-20T10:05:01;93328.47;;;14.66;97.51
61128;BME280;47013;42.664;23.242;2022-11-20T10:10:05;93355.53;;;14.82;92.02
61128;BME280;47013;42.664;23.242;2022-11-20T10:21:01;93371.88;;;15.35;84.38
61128;BME280;47013;42.664;23.242;2022-11-20T10:26:21;93391.19;;;15.41;86.32
61128;BME280;47013;42.664;23.242;2022-11-20T10:34:21;93373.78;;;16.15;87.13
61128;BME280;47013;42.664;23.242;2022-11-20T10:37:16;93386.03;;;15.83;90.22
61128;BME280;47013;42.664;23.242;2022-11-20T10:39:42;93378.03;;;15.57;90.69
61128;BME280;47013;42.664;23.242;2022-11-20T10:42:15;93368.25;;;15.38;94.05
61128;BME280;47013;42.664;23.242;2022-11-20T10:44:47;93377.44;;;15.22;96.56
61128;BME280;47013;42.664;23.242;2022-11-20T10:47:28;93374.09;;;14.96;97.54
61128;BME280;47013;42.664;23.242;2022-11-20T10:49:58;93389.72;;;14.96;98.98
61128;BME280;47013;42.664;23.242;2022-11-20T11:06:35;93472.78;;;12.69;100.00
61128;BME280;47013;42.664;23.242;2022-11-20T11:09:10;93460.50;;;12.03;100.00
61128;BME280;47013;42.664;23.242;2022-11-20T11:11:38;93428.00;;;11.84;100.00
61128;BME280;47013;42.664;23.242;2022-11-20T11:14:08;93424.69;;;11.76;99.93
61128;BME280;47013;42.664;23.242;2022-11-20T11:16:34;93424.34;;;11.74;100.00
61128;BME280;47013;42.664;23.242;2022-11-20T12:13:23;93392.50;;;12.65;85.35
61128;BME280;47013;42.664;23.242;2022-11-20T12:15:51;93381.38;;;12.59;86.73
61128;BME280;47013;42.664;23.242;2022-11-20T12:18:21;93387.94;;;12.87;87.05
61128;BME280;47013;42.664;23.242;2022-11-20T12:39:48;93324.06;;;12.66;88.98
61128;BME280;47013;42.664;23.242;2022-11-20T12:48:33;93310.25;;;12.86;84.69
61128;BME280;47013;42.664;23.242;2022-11-20T13:02:18;93294.59;;;13.28;86.53
61128;BME280;47013;42.664;23.242;2022-11-20T13:07:44;93287.41;;;13.35;89.39
61128;BME280;47013;42.664;23.242;2022-11-20T13:10:18;93289.34;;;13.47;90.02
61128;BME280;47013;42.664;23.242;2022-11-20T13:12:55;93315.56;;;13.53;89.44
61128;BME280;47013;42.664;23.242;2022-11-20T13:16:00;93347.13;;;13.76;87.10
61128;BME280;47013;42.664;23.242;2022-11-20T13:18:38;93340.47;;;13.77;88.48
61128;BME280;47013;42.664;23.242;2022-11-20T13:23:40;93355.03;;;13.23;92.61
61128;BME280;47013;42.664;23.242;2022-11-20T13:26:17;93357.72;;;13.11;94.23
61128;BME280;47013;42.664;23.242;2022-11-20T13:28:45;93367.66;;;13.17;92.99
61128;BME280;47013;42.664;23.242;2022-11-20T13:31:29;93370.38;;;13.05;94.38
61128;BME280;47013;42.664;23.242;2022-11-20T13:33:56;93354.03;;;13.05;93.32
61128;BME280;47013;42.664;23.242;2022-11-20T13:36:26;93358.28;;;13.06;94.69
61128;BME280;47013;42.664;23.242;2022-11-20T13:38:54;93362.19;;;13.17;99.27
61128;BME280;47013;42.664;23.242;2022-11-20T13:46:48;93381.38;;;13.26;96.12
61128;BME280;47013;42.664;23.242;2022-11-20T13:49:31;93390.53;;;13.33;97.49
61128;BME280;47013;42.664;23.242;2022-11-20T14:00:25;93388.97;;;13.06;94.64
61128;BME280;47013;42.664;23.242;2022-11-20T14:05:35;93384.50;;;12.99;96.00
61128;BME280;47013;42.664;23.242;2022-11-20T14:08:03;93375.78;;;12.79;96.46
61128;BME280;47013;42.664;23.242;2022-11-20T14:10:29;93368.25;;;12.83;97.50
61128;BME280;47013;42.664;23.242;2022-11-20T14:12:55;93372.06;;;12.86;98.42
61128;BME280;47013;42.664;23.242;2022-11-20T14:15:38;93379.47;;;12.85;100.00
61128;BME280;47013;42.664;23.242;2022-11-20T14:18:13;93380.78;;;12.93;100.00
61128;BME280;47013;42.664;23.242;2022-11-20T14:20:39;93385.69;;;12.98;100.00
61128;BME280;47013;42.664;23.242;2022-11-20T14:23:09;93369.47;;;12.95;99.25
61128;BME280;47013;42.664;23.242;2022-11-20T14:25:35;93370.16;;;12.57;98.60
61128;BME280;47013;42.664;23.242;2022-11-20T14:28:02;93375.41;;;12.64;100.00
61128;BME280;47013;42.664;23.242;2022-11-20T14:30:46;93388.56;;;12.66;94.48
61128;BME280;47013;42.664;23.242;2022-11-20T14:33:14;93390.44;;;12.69;94.43
61128;BME280;47013;42.664;23.242;2022-11-20T14:35:48;93393.03;;;12.73;92.71
61128;BME280;47013;42.664;23.242;2022-11-20T14:38:17;93397.72;;;12.72;94.09
61128;BME280;47013;42.664;23.242;2022-11-20T14:40:43;93389.34;;;12.66;93.92
61128;BME280;47013;42.664;23.242;2022-11-20T14:43:27;93398.25;;;12.67;92.32
61128;BME280;47013;42.664;23.242;2022-11-20T14:46:02;93389.09;;;12.61;92.84
61128;BME280;47013;42.664;23.242;2022-11-20T14:48:39;93398.44;;;12.60;92.53
61128;BME280;47013;42.664;23.242;2022-11-20T14:51:09;93396.41;;;12.64;93.86
61128;BME280;47013;42.664;23.242;2022-11-20T14:53:35;93397.19;;;12.64;96.01
61128;BME280;47013;42.664;23.242;2022-11-20T14:56:02;93384.78;;;12.63;94.19
61128;BME280;47013;42.664;23.242;2022-11-20T14:58:30;93393.44;;;12.58;92.37
61128;BME280;47013;42.664;23.242;2022-11-20T15:01:04;93404.53;;;12.51;92.14
61128;BME280;47013;42.664;23.242;2022-11-20T15:03:37;93403.34;;;12.52;91.43
61128;BME280;47013;42.664;23.242;2022-11-20T15:06:04;93406.91;;;12.49;91.32
61128;BME280;47013;42.664;23.242;2022-11-20T15:08:30;93411.56;;;12.49;93.56
61128;BME280;47013;42.664;23.242;2022-11-20T15:10:56;93414.66;;;12.51;94.39
61128;BME280;47013;42.664;23.242;2022-11-20T15:13:29;93420.31;;;12.56;92.82
61128;BME280;47013;42.664;23.242;2022-11-20T15:15:56;93433.47;;;12.58;90.69
61128;BME280;47013;42.664;23.242;2022-11-20T15:18:23;93442.66;;;12.48;90.55
61128;BME280;47013;42.664;23.242;2022-11-20T15:20:50;93449.41;;;12.43;91.32
61128;BME280;47013;42.664;23.242;2022-11-20T15:23:17;93443.34;;;12.81;100.00
61128;BME280;47013;42.664;23.242;2022-11-20T15:25:46;93451.72;;;13.28;100.00
61128;BME280;47013;42.664;23.242;2022-11-20T15:28:33;93445.47;;;13.15;90.11
61128;BME280;47013;42.664;23.242;2022-11-20T15:31:00;93469.50;;;12.91;89.82
61128;BME280;47013;42.664;23.242;2022-11-20T15:33:25;93488.34;;;12.69;90.39
61128;BME280;47013;42.664;23.242;2022-11-20T15:35:51;93487.19;;;12.54;91.70
61128;BME280;47013;42.664;23.242;2022-11-20T15:38:16;93507.03;;;12.38;96.75
61128;BME280;47013;42.664;23.242;2022-11-20T15:40:41;93535.25;;;12.28;99.05